»·PEaware :: N9636V KLAX-KSNA

N9636V :: KLAX-KSNA

FLIGHT INFORMATION

Flight Status: Arrived
Operator: Privately registered:
United States
More flights under this callsign
Pilot: Joe F. (22359)
Aircraft: CESSNA 172 SKYHAWK
(C172)
More flights by this aircraft type
Origin: KLAX Los Angeles Intl
United States
Destination: KSNA John Wayne-Orange Co
United States
More flights between these airports :: More routes between these airports
Route: SLI8 SLI
File this flight plan on PilotEdge
Remarks: I-6 Rating
Altitude:
(Current/Filed)
4,000ft
Speed:
(Current/Filed)
120kts
Departed: 21-May-20 02:05 PM
Arrived: 21-May-20 02:48 PM
Distance/Time
Traveled:
31nm/0:43
Distance/Time
To Go:
Arrived

Flight Plot

Page will automatically refresh every two minutes.


Map Options




Map Legend


Flown Route
Filed Route
Departure Airport
Arrival Airport
Navaid (VOR, NDB)
Fix

Horizontal Profiles

Position Reports

Time Latitude Longitude Heading Altitude Ground
Speed
21-May-20 13:39 33.932658 -118.399141 83 111ft 0kts
21-May-20 13:40 33.932658 -118.399141 83 111ft 0kts
21-May-20 13:41 33.932658 -118.399141 83 111ft 0kts
21-May-20 13:42 33.932658 -118.399141 83 111ft 0kts
21-May-20 13:43 33.932658 -118.399141 83 111ft 0kts
21-May-20 13:44 33.932658 -118.399141 83 111ft 0kts
21-May-20 13:45 33.932658 -118.399141 83 111ft 0kts
21-May-20 13:46 33.932658 -118.399141 83 111ft 0kts
21-May-20 13:47 33.932658 -118.399141 83 111ft 0kts
21-May-20 13:48 33.932658 -118.399141 83 111ft 0kts
21-May-20 13:49 33.932658 -118.399141 83 111ft 0kts
21-May-20 13:50 33.932658 -118.399141 83 111ft 0kts
21-May-20 13:51 33.932658 -118.399141 83 111ft 0kts
21-May-20 13:52 33.932658 -118.399141 83 111ft 0kts
21-May-20 13:53 33.932658 -118.399141 83 111ft 0kts
21-May-20 13:54 33.932658 -118.399141 83 111ft 0kts
21-May-20 13:55 33.932999 -118.398668 23 110ft 9kts
21-May-20 13:56 33.934729 -118.396522 81 106ft 13kts
21-May-20 13:57 33.935183 -118.392010 83 102ft 15kts
21-May-20 13:58 33.935687 -118.387080 84 99ft 15kts
21-May-20 13:59 33.936353 -118.382869 12 96ft 0kts
21-May-20 14:00 33.936352 -118.382869 12 96ft 0kts
21-May-20 14:02 33.936467 -118.382849 355 96ft 0kts
21-May-20 14:03 33.936467 -118.382849 355 96ft 0kts
21-May-20 14:04 33.936879 -118.382956 346 96ft 12kts
21-May-20 14:05 33.935626 -118.400139 262 497ft 79kts
21-May-20 14:06 33.932098 -118.427668 264 1373ft 83kts
21-May-20 14:07 33.921519 -118.450833 216 2194ft 88kts
21-May-20 14:08 33.902297 -118.466954 219 2976ft 87kts
21-May-20 14:09 33.881887 -118.483671 216 3707ft 90kts
21-May-20 14:10 33.868712 -118.469255 109 4092ft 105kts
21-May-20 14:11 33.860993 -118.431695 109 3999ft 117kts
21-May-20 14:12 33.852661 -118.395467 110 3954ft 109kts
21-May-20 14:13 33.843159 -118.361259 111 3965ft 109kts
21-May-20 14:14 33.836606 -118.325176 110 3958ft 110kts
21-May-20 14:15 33.828843 -118.288538 103 3856ft 121kts
21-May-20 14:16 33.820668 -118.251379 101 3978ft 110kts
21-May-20 14:16 33.814645 -118.221495 102 4018ft 112kts
21-May-20 14:18 33.805730 -118.178894 108 4061ft 113kts
21-May-20 14:19 33.798661 -118.142446 107 4030ft 111kts
21-May-20 14:19 33.792509 -118.113133 111 4022ft 110kts
21-May-20 14:21 33.785900 -118.071243 105 4009ft 110kts
21-May-20 14:21 33.786929 -118.042691 67 4047ft 112kts
21-May-20 14:22 33.799753 -118.009522 68 4088ft 113kts
21-May-20 14:24 33.815988 -117.969968 61 4048ft 113kts
21-May-20 14:24 33.826787 -117.942014 63 4024ft 112kts
21-May-20 14:25 33.839979 -117.908222 60 3990ft 111kts
21-May-20 14:26 33.853094 -117.875233 60 3958ft 110kts
21-May-20 14:27 33.866361 -117.841660 59 3937ft 110kts
21-May-20 14:28 33.879685 -117.808848 63 3948ft 108kts
21-May-20 14:29 33.893160 -117.776345 60 3942ft 108kts
21-May-20 14:30 33.906664 -117.744012 58 3953ft 108kts
21-May-20 14:31 33.921545 -117.712737 30 3949ft 106kts
21-May-20 14:32 33.947223 -117.697235 7 3681ft 102kts
21-May-20 14:33 33.951184 -117.715693 177 3328ft 112kts
21-May-20 14:34 33.922330 -117.720014 199 3626ft 103kts
21-May-20 14:35 33.895386 -117.734322 207 3431ft 101kts
21-May-20 14:36 33.874160 -117.746365 207 3348ft 80kts
21-May-20 14:37 33.854093 -117.756878 208 3389ft 79kts
21-May-20 14:38 33.834845 -117.768837 208 3196ft 80kts
21-May-20 14:39 33.814614 -117.781379 209 3016ft 85kts
21-May-20 14:40 33.792367 -117.795125 212 2693ft 91kts
21-May-20 14:41 33.769966 -117.809980 210 2205ft 92kts
21-May-20 14:42 33.749190 -117.822719 200 1558ft 76kts
21-May-20 14:43 33.731213 -117.833815 210 1186ft 72kts
21-May-20 14:44 33.713552 -117.844999 206 834ft 71kts
21-May-20 14:45 33.695871 -117.856167 210 413ft 71kts
21-May-20 14:46 33.680744 -117.865563 207 60ft 46kts
21-May-20 14:47 33.678011 -117.868350 299 60ft 0kts
21-May-20 14:48 33.678001 -117.868732 248 60ft 3kts
21-May-20 14:49 33.676498 -117.870196 246 60ft 10kts
21-May-20 14:50 33.676065 -117.870855 209 60ft 0kts
21-May-20 14:51 33.676065 -117.870855 209 60ft 0kts
21-May-20 14:52 33.676065 -117.870855 209 60ft 0kts
21-May-20 14:53 33.676065 -117.870855 209 60ft 0kts
21-May-20 14:54 33.676065 -117.870855 209 60ft 0kts
21-May-20 14:55 33.676065 -117.870855 209 60ft 0kts
21-May-20 14:56 33.676065 -117.870855 209 60ft 0kts
21-May-20 14:57 33.676065 -117.870855 209 60ft 0kts
21-May-20 14:58 33.676065 -117.870855 209 60ft 0kts
21-May-20 14:59 33.676065 -117.870855 209 60ft 0kts
21-May-20 15:00 33.676065 -117.870855 209 60ft 0kts
21-May-20 15:01 33.676065 -117.870855 209 60ft 0kts
21-May-20 15:02 33.676065 -117.870855 209 60ft 0kts

Navigation Log

Ident Type
Flight plan parsing failed, navigation log unavailable